sensor_id;sensor_type;location;lat;lon;timestamp;temperature;humidity
1453;DHT22;720;47.738;7.998;2023-12-04T00:01:18;-4.10;93.60
1453;DHT22;720;47.738;7.998;2023-12-04T00:03:45;-4.20;93.70
1453;DHT22;720;47.738;7.998;2023-12-04T00:06:11;-4.10;93.90
1453;DHT22;720;47.738;7.998;2023-12-04T00:08:37;-4.00;94.00
1453;DHT22;720;47.738;7.998;2023-12-04T00:11:04;-4.00;93.70
1453;DHT22;720;47.738;7.998;2023-12-04T00:13:30;-4.00;93.70
1453;DHT22;720;47.738;7.998;2023-12-04T00:15:55;-4.00;94.00
1453;DHT22;720;47.738;7.998;2023-12-04T00:18:21;-4.00;93.70
1453;DHT22;720;47.738;7.998;2023-12-04T00:20:46;-4.00;93.50
1453;DHT22;720;47.738;7.998;2023-12-04T00:23:13;-4.00;93.50
1453;DHT22;720;47.738;7.998;2023-12-04T00:25:41;-3.90;93.60
1453;DHT22;720;47.738;7.998;2023-12-04T00:28:07;-3.90;93.70
1453;DHT22;720;47.738;7.998;2023-12-04T00:30:32;-3.90;93.80
1453;DHT22;720;47.738;7.998;2023-12-04T00:32:58;-3.90;94.00
1453;DHT22;720;47.738;7.998;2023-12-04T00:35:24;-3.80;93.90
1453;DHT22;720;47.738;7.998;2023-12-04T00:37:49;-3.70;93.70
1453;DHT22;720;47.738;7.998;2023-12-04T00:40:15;-3.60;93.30
1453;DHT22;720;47.738;7.998;2023-12-04T00:42:41;-3.70;93.10
1453;DHT22;720;47.738;7.998;2023-12-04T00:45:08;-3.70;93.30
1453;DHT22;720;47.738;7.998;2023-12-04T00:47:35;-3.80;93.40
1453;DHT22;720;47.738;7.998;2023-12-04T00:50:01;-3.90;93.50
1453;DHT22;720;47.738;7.998;2023-12-04T00:52:27;-3.80;93.90
1453;DHT22;720;47.738;7.998;2023-12-04T00:54:53;-3.80;94.20
1453;DHT22;720;47.738;7.998;2023-12-04T00:57:19;-3.80;94.30
1453;DHT22;720;47.738;7.998;2023-12-04T00:59:45;-3.80;94.40
1453;DHT22;720;47.738;7.998;2023-12-04T01:02:10;-3.60;93.90
1453;DHT22;720;47.738;7.998;2023-12-04T01:04:40;-3.50;93.30
1453;DHT22;720;47.738;7.998;2023-12-04T01:07:07;-3.70;93.20
1453;DHT22;720;47.738;7.998;2023-12-04T01:09:36;-3.80;93.60
1453;DHT22;720;47.738;7.998;2023-12-04T01:12:02;-3.60;94.00
1453;DHT22;720;47.738;7.998;2023-12-04T01:14:29;-3.60;94.00
1453;DHT22;720;47.738;7.998;2023-12-04T01:16:55;-3.50;94.10
1453;DHT22;720;47.738;7.998;2023-12-04T01:19:21;-3.40;94.00
1453;DHT22;720;47.738;7.998;2023-12-04T01:21:47;-3.40;94.00
1453;DHT22;720;47.738;7.998;2023-12-04T01:24:32;-3.50;94.10
1453;DHT22;720;47.738;7.998;2023-12-04T01:27:00;-3.40;94.20
1453;DHT22;720;47.738;7.998;2023-12-04T01:29:26;-3.40;94.10
1453;DHT22;720;47.738;7.998;2023-12-04T01:31:52;-3.30;94.00
1453;DHT22;720;47.738;7.998;2023-12-04T01:34:18;-3.20;93.90
1453;DHT22;720;47.738;7.998;2023-12-04T01:36:44;-3.20;93.70
1453;DHT22;720;47.738;7.998;2023-12-04T01:39:09;-3.20;94.00
1453;DHT22;720;47.738;7.998;2023-12-04T01:41:35;-3.30;93.60
1453;DHT22;720;47.738;7.998;2023-12-04T01:44:01;-3.30;93.60
1453;DHT22;720;47.738;7.998;2023-12-04T01:46:27;-3.30;93.50
1453;DHT22;720;47.738;7.998;2023-12-04T01:48:53;-3.30;93.30
1453;DHT22;720;47.738;7.998;2023-12-04T01:51:19;-3.40;93.30
1453;DHT22;720;47.738;7.998;2023-12-04T01:53:46;-3.40;93.50
1453;DHT22;720;47.738;7.998;2023-12-04T01:56:13;-3.30;93.70
1453;DHT22;720;47.738;7.998;2023-12-04T01:58:40;-3.30;93.70
1453;DHT22;720;47.738;7.998;2023-12-04T02:01:06;-3.30;93.70
1453;DHT22;720;47.738;7.998;2023-12-04T02:03:33;-3.20;93.50
1453;DHT22;720;47.738;7.998;2023-12-04T02:06:02;-3.20;93.40
1453;DHT22;720;47.738;7.998;2023-12-04T02:08:29;-3.30;93.40
1453;DHT22;720;47.738;7.998;2023-12-04T02:10:55;-3.40;93.70
1453;DHT22;720;47.738;7.998;2023-12-04T02:13:21;-3.40;94.20
1453;DHT22;720;47.738;7.998;2023-12-04T02:15:49;-3.20;94.40
1453;DHT22;720;47.738;7.998;2023-12-04T02:18:17;-3.00;94.20
1453;DHT22;720;47.738;7.998;2023-12-04T02:20:43;-2.90;93.90
1453;DHT22;720;47.738;7.998;2023-12-04T02:23:09;-2.90;93.40
1453;DHT22;720;47.738;7.998;2023-12-04T02:25:35;-3.10;93.20
1453;DHT22;720;47.738;7.998;2023-12-04T02:28:02;-3.20;93.50
1453;DHT22;720;47.738;7.998;2023-12-04T02:30:30;-3.30;93.80
1453;DHT22;720;47.738;7.998;2023-12-04T02:32:58;-3.40;94.20
1453;DHT22;720;47.738;7.998;2023-12-04T02:35:27;-3.30;94.50
1453;DHT22;720;47.738;7.998;2023-12-04T02:37:55;-3.20;94.50
1453;DHT22;720;47.738;7.998;2023-12-04T02:40:24;-3.10;94.50
1453;DHT22;720;47.738;7.998;2023-12-04T02:42:50;-3.00;94.30
1453;DHT22;720;47.738;7.998;2023-12-04T02:45:15;-3.00;94.20
1453;DHT22;720;47.738;7.998;2023-12-04T02:47:41;-3.00;94.10
1453;DHT22;720;47.738;7.998;2023-12-04T02:50:07;-3.00;94.40
1453;DHT22;720;47.738;7.998;2023-12-04T02:52:32;-3.00;94.60
1453;DHT22;720;47.738;7.998;2023-12-04T02:54:58;-3.00;94.80
1453;DHT22;720;47.738;7.998;2023-12-04T02:57:24;-2.80;94.90
1453;DHT22;720;47.738;7.998;2023-12-04T02:59:50;-2.70;94.50
1453;DHT22;720;47.738;7.998;2023-12-04T03:02:16;-2.70;94.20
1453;DHT22;720;47.738;7.998;2023-12-04T03:04:41;-2.70;94.10
1453;DHT22;720;47.738;7.998;2023-12-04T03:07:07;-2.70;94.00
1453;DHT22;720;47.738;7.998;2023-12-04T03:09:32;-2.70;94.00
1453;DHT22;720;47.738;7.998;2023-12-04T03:11:58;-2.70;94.00
1453;DHT22;720;47.738;7.998;2023-12-04T03:14:23;-2.70;94.00
1453;DHT22;720;47.738;7.998;2023-12-04T03:16:50;-2.60;94.00
1453;DHT22;720;47.738;7.998;2023-12-04T03:19:15;-2.70;94.00
1453;DHT22;720;47.738;7.998;2023-12-04T03:21:41;-2.80;94.20
1453;DHT22;720;47.738;7.998;2023-12-04T03:24:06;-2.70;94.60
1453;DHT22;720;47.738;7.998;2023-12-04T03:26:34;-2.60;95.10
1453;DHT22;720;47.738;7.998;2023-12-04T03:29:01;-2.50;94.60
1453;DHT22;720;47.738;7.998;2023-12-04T03:31:26;-2.50;94.40
1453;DHT22;720;47.738;7.998;2023-12-04T03:33:53;-2.50;94.30
1453;DHT22;720;47.738;7.998;2023-12-04T03:36:19;-2.50;94.30
1453;DHT22;720;47.738;7.998;2023-12-04T03:38:45;-2.50;94.30
1453;DHT22;720;47.738;7.998;2023-12-04T03:41:16;-2.50;94.20
1453;DHT22;720;47.738;7.998;2023-12-04T03:43:43;-2.40;94.10
1453;DHT22;720;47.738;7.998;2023-12-04T03:46:09;-2.40;94.00
1453;DHT22;720;47.738;7.998;2023-12-04T03:48:34;-2.40;93.90
1453;DHT22;720;47.738;7.998;2023-12-04T03:51:00;-2.40;93.90
1453;DHT22;720;47.738;7.998;2023-12-04T03:53:26;-2.40;94.10
1453;DHT22;720;47.738;7.998;2023-12-04T03:55:52;-2.30;94.40
1453;DHT22;720;47.738;7.998;2023-12-04T03:58:18;-2.20;94.50
1453;DHT22;720;47.738;7.998;2023-12-04T04:00:43;-2.10;94.40
1453;DHT22;720;47.738;7.998;2023-12-04T04:03:09;-2.10;94.20
1453;DHT22;720;47.738;7.998;2023-12-04T04:05:35;-2.00;94.00
1453;DHT22;720;47.738;7.998;2023-12-04T04:08:01;-2.00;93.70
1453;DHT22;720;47.738;7.998;2023-12-04T04:10:27;-2.10;93.70
1453;DHT22;720;47.738;7.998;2023-12-04T04:12:53;-2.20;93.80
1453;DHT22;720;47.738;7.998;2023-12-04T04:15:18;-2.30;94.10
1453;DHT22;720;47.738;7.998;2023-12-04T04:17:44;-2.30;94.40
1453;DHT22;720;47.738;7.998;2023-12-04T04:20:10;-2.10;94.80
1453;DHT22;720;47.738;7.998;2023-12-04T04:22:37;-1.90;94.30
1453;DHT22;720;47.738;7.998;2023-12-04T04:25:07;-1.90;94.20
1453;DHT22;720;47.738;7.998;2023-12-04T04:27:33;-1.90;94.20
1453;DHT22;720;47.738;7.998;2023-12-04T04:29:59;-1.90;94.40
1453;DHT22;720;47.738;7.998;2023-12-04T04:32:25;-1.90;94.60
1453;DHT22;720;47.738;7.998;2023-12-04T04:34:50;-1.70;94.90
1453;DHT22;720;47.738;7.998;2023-12-04T04:37:16;-1.60;94.70
1453;DHT22;720;47.738;7.998;2023-12-04T04:39:42;-1.50;94.60
1453;DHT22;720;47.738;7.998;2023-12-04T04:42:07;-1.40;94.40
1453;DHT22;720;47.738;7.998;2023-12-04T04:44:33;-1.40;94.40
1453;DHT22;720;47.738;7.998;2023-12-04T04:46:59;-1.50;94.40
1453;DHT22;720;47.738;7.998;2023-12-04T04:49:25;-1.40;94.60
1453;DHT22;720;47.738;7.998;2023-12-04T04:51:51;-1.50;94.60
1453;DHT22;720;47.738;7.998;2023-12-04T04:54:17;-1.40;94.70
1453;DHT22;720;47.738;7.998;2023-12-04T04:56:42;-1.30;94.40
1453;DHT22;720;47.738;7.998;2023-12-04T04:59:08;-1.30;94.20
1453;DHT22;720;47.738;7.998;2023-12-04T05:01:33;-1.40;94.20
1453;DHT22;720;47.738;7.998;2023-12-04T05:04:00;-1.40;94.50
1453;DHT22;720;47.738;7.998;2023-12-04T05:06:25;-1.30;94.40
1453;DHT22;720;47.738;7.998;2023-12-04T05:08:51;-1.30;94.20
1453;DHT22;720;47.738;7.998;2023-12-04T05:11:18;-1.20;94.20
1453;DHT22;720;47.738;7.998;2023-12-04T05:13:47;-1.20;94.20
1453;DHT22;720;47.738;7.998;2023-12-04T05:16:12;-1.20;94.30
1453;DHT22;720;47.738;7.998;2023-12-04T05:18:41;-1.20;94.30
1453;DHT22;720;47.738;7.998;2023-12-04T05:21:10;-1.30;94.30
1453;DHT22;720;47.738;7.998;2023-12-04T05:23:39;-1.30;94.40
1453;DHT22;720;47.738;7.998;2023-12-04T05:26:06;-1.30;94.70
1453;DHT22;720;47.738;7.998;2023-12-04T05:28:32;-1.30;94.80
1453;DHT22;720;47.738;7.998;2023-12-04T05:30:58;-1.20;95.20
1453;DHT22;720;47.738;7.998;2023-12-04T05:33:23;-1.10;94.60
1453;DHT22;720;47.738;7.998;2023-12-04T05:35:49;-1.00;94.30
1453;DHT22;720;47.738;7.998;2023-12-04T05:38:17;-1.00;94.10
1453;DHT22;720;47.738;7.998;2023-12-04T05:40:43;-1.00;94.10
1453;DHT22;720;47.738;7.998;2023-12-04T05:43:08;-0.90;94.30
1453;DHT22;720;47.738;7.998;2023-12-04T05:45:34;-1.00;94.40
1453;DHT22;720;47.738;7.998;2023-12-04T05:48:00;-1.10;94.40
1453;DHT22;720;47.738;7.998;2023-12-04T05:50:26;-1.00;94.20
1453;DHT22;720;47.738;7.998;2023-12-04T05:52:51;-1.00;94.20
1453;DHT22;720;47.738;7.998;2023-12-04T05:55:17;-1.10;94.30
1453;DHT22;720;47.738;7.998;2023-12-04T05:57:44;-1.30;94.30
1453;DHT22;720;47.738;7.998;2023-12-04T06:00:10;-1.30;94.80
1453;DHT22;720;47.738;7.998;2023-12-04T06:02:42;-1.30;95.10
1453;DHT22;720;47.738;7.998;2023-12-04T06:05:09;-1.10;95.10
1453;DHT22;720;47.738;7.998;2023-12-04T06:07:35;-0.90;95.00
1453;DHT22;720;47.738;7.998;2023-12-04T06:10:03;-0.90;94.70
1453;DHT22;720;47.738;7.998;2023-12-04T06:12:33;-0.90;94.70
1453;DHT22;720;47.738;7.998;2023-12-04T06:14:58;-0.90;94.90
1453;DHT22;720;47.738;7.998;2023-12-04T06:17:25;-0.90;95.10
1453;DHT22;720;47.738;7.998;2023-12-04T06:19:50;-0.80;95.30
1453;DHT22;720;47.738;7.998;2023-12-04T06:22:16;-0.80;95.40
1453;DHT22;720;47.738;7.998;2023-12-04T06:24:45;-0.70;95.50
1453;DHT22;720;47.738;7.998;2023-12-04T06:27:15;-0.80;95.60
1453;DHT22;720;47.738;7.998;2023-12-04T06:29:43;-0.90;95.60
1453;DHT22;720;47.738;7.998;2023-12-04T06:32:10;-0.90;95.70
1453;DHT22;720;47.738;7.998;2023-12-04T06:34:37;-0.80;95.80
1453;DHT22;720;47.738;7.998;2023-12-04T06:37:11;-0.70;95.70
1453;DHT22;720;47.738;7.998;2023-12-04T06:39:38;-0.80;95.60
1453;DHT22;720;47.738;7.998;2023-12-04T06:42:05;-0.70;95.30
1453;DHT22;720;47.738;7.998;2023-12-04T06:44:31;-0.60;95.00
1453;DHT22;720;47.738;7.998;2023-12-04T06:47:00;-0.50;94.80
1453;DHT22;720;47.738;7.998;2023-12-04T06:49:30;-0.50;94.80
1453;DHT22;720;47.738;7.998;2023-12-04T06:51:56;-0.60;94.80
1453;DHT22;720;47.738;7.998;2023-12-04T06:54:22;-0.70;95.10
1453;DHT22;720;47.738;7.998;2023-12-04T06:56:47;-0.60;95.60
1453;DHT22;720;47.738;7.998;2023-12-04T06:59:13;-0.50;95.70
1453;DHT22;720;47.738;7.998;2023-12-04T07:01:38;-0.60;95.80
1453;DHT22;720;47.738;7.998;2023-12-04T07:04:04;-0.70;95.80
1453;DHT22;720;47.738;7.998;2023-12-04T07:06:35;-0.70;96.00
1453;DHT22;720;47.738;7.998;2023-12-04T07:09:01;-0.80;96.30
1453;DHT22;720;47.738;7.998;2023-12-04T07:11:27;-0.70;96.40
1453;DHT22;720;47.738;7.998;2023-12-04T07:13:53;-0.50;96.40
1453;DHT22;720;47.738;7.998;2023-12-04T07:16:18;-0.40;96.30
1453;DHT22;720;47.738;7.998;2023-12-04T07:18:44;-0.40;96.20
1453;DHT22;720;47.738;7.998;2023-12-04T07:21:09;-0.40;96.20
1453;DHT22;720;47.738;7.998;2023-12-04T07:23:35;-0.30;96.50
1453;DHT22;720;47.738;7.998;2023-12-04T07:26:01;-0.20;96.40
1453;DHT22;720;47.738;7.998;2023-12-04T07:28:26;-0.20;96.30
1453;DHT22;720;47.738;7.998;2023-12-04T07:30:54;-0.30;96.40
1453;DHT22;720;47.738;7.998;2023-12-04T07:33:19;-0.20;96.40
1453;DHT22;720;47.738;7.998;2023-12-04T07:35:45;-0.30;96.40
1453;DHT22;720;47.738;7.998;2023-12-04T07:38:11;-0.20;96.60
1453;DHT22;720;47.738;7.998;2023-12-04T07:40:36;0.00;96.60
1453;DHT22;720;47.738;7.998;2023-12-04T07:43:02;0.20;96.40
1453;DHT22;720;47.738;7.998;2023-12-04T07:45:27;0.20;96.20
1453;DHT22;720;47.738;7.998;2023-12-04T07:47:53;0.30;96.20
1453;DHT22;720;47.738;7.998;2023-12-04T07:50:19;0.40;96.20
1453;DHT22;720;47.738;7.998;2023-12-04T07:52:44;0.60;95.90
1453;DHT22;720;47.738;7.998;2023-12-04T07:55:10;0.70;95.70
1453;DHT22;720;47.738;7.998;2023-12-04T07:57:37;0.70;95.60
1453;DHT22;720;47.738;7.998;2023-12-04T08:00:03;0.70;95.60
1453;DHT22;720;47.738;7.998;2023-12-04T08:02:29;0.70;95.80
1453;DHT22;720;47.738;7.998;2023-12-04T08:04:54;0.70;96.10
1453;DHT22;720;47.738;7.998;2023-12-04T08:07:20;0.70;96.60
1453;DHT22;720;47.738;7.998;2023-12-04T08:09:45;0.90;96.40
1453;DHT22;720;47.738;7.998;2023-12-04T08:12:12;1.10;96.30
1453;DHT22;720;47.738;7.998;2023-12-04T08:14:38;1.00;96.10
1453;DHT22;720;47.738;7.998;2023-12-04T08:17:04;1.00;96.20
1453;DHT22;720;47.738;7.998;2023-12-04T08:19:32;1.20;96.10
1453;DHT22;720;47.738;7.998;2023-12-04T08:21:57;1.10;96.10
1453;DHT22;720;47.738;7.998;2023-12-04T08:24:23;1.20;96.10
1453;DHT22;720;47.738;7.998;2023-12-04T08:26:49;1.20;96.00
1453;DHT22;720;47.738;7.998;2023-12-04T08:29:16;1.00;96.30
1453;DHT22;720;47.738;7.998;2023-12-04T08:31:42;0.90;96.70
1453;DHT22;720;47.738;7.998;2023-12-04T08:34:08;1.00;97.20
1453;DHT22;720;47.738;7.998;2023-12-04T08:36:34;1.30;97.00
1453;DHT22;720;47.738;7.998;2023-12-04T08:39:00;1.50;97.00
1453;DHT22;720;47.738;7.998;2023-12-04T08:41:25;1.70;96.30
1453;DHT22;720;47.738;7.998;2023-12-04T08:43:53;2.00;96.10
1453;DHT22;720;47.738;7.998;2023-12-04T08:46:20;2.20;96.00
1453;DHT22;720;47.738;7.998;2023-12-04T08:48:46;2.30;95.70
1453;DHT22;720;47.738;7.998;2023-12-04T08:51:18;2.50;95.70
1453;DHT22;720;47.738;7.998;2023-12-04T08:53:44;2.60;95.60
1453;DHT22;720;47.738;7.998;2023-12-04T08:56:11;2.70;95.00
1453;DHT22;720;47.738;7.998;2023-12-04T08:58:37;2.70;94.70
1453;DHT22;720;47.738;7.998;2023-12-04T09:01:03;2.70;94.80
1453;DHT22;720;47.738;7.998;2023-12-04T09:03:30;2.80;95.10
1453;DHT22;720;47.738;7.998;2023-12-04T09:05:59;2.80;95.30
1453;DHT22;720;47.738;7.998;2023-12-04T09:08:26;3.00;95.10
1453;DHT22;720;47.738;7.998;2023-12-04T09:10:52;3.20;95.20
1453;DHT22;720;47.738;7.998;2023-12-04T09:13:19;3.40;95.20
1453;DHT22;720;47.738;7.998;2023-12-04T09:15:45;3.70;95.00
1453;DHT22;720;47.738;7.998;2023-12-04T09:18:11;4.00;94.90
1453;DHT22;720;47.738;7.998;2023-12-04T09:20:36;4.30;94.90
1453;DHT22;720;47.738;7.998;2023-12-04T09:23:02;4.60;94.40
1453;DHT22;720;47.738;7.998;2023-12-04T09:25:28;4.90;94.10
1453;DHT22;720;47.738;7.998;2023-12-04T09:27:53;5.10;93.50
1453;DHT22;720;47.738;7.998;2023-12-04T09:30:19;5.20;92.40
1453;DHT22;720;47.738;7.998;2023-12-04T09:32:44;5.20;92.20
1453;DHT22;720;47.738;7.998;2023-12-04T09:35:10;5.30;92.30
1453;DHT22;720;47.738;7.998;2023-12-04T09:37:37;5.10;92.30
1453;DHT22;720;47.738;7.998;2023-12-04T09:40:03;4.80;92.10
1453;DHT22;720;47.738;7.998;2023-12-04T09:42:31;4.30;92.50
1453;DHT22;720;47.738;7.998;2023-12-04T09:44:58;4.20;93.00
1453;DHT22;720;47.738;7.998;2023-12-04T09:47:24;3.90;93.60
1453;DHT22;720;47.738;7.998;2023-12-04T09:49:51;3.80;94.20
1453;DHT22;720;47.738;7.998;2023-12-04T09:52:19;3.90;94.70
1453;DHT22;720;47.738;7.998;2023-12-04T09:54:45;3.80;95.20
1453;DHT22;720;47.738;7.998;2023-12-04T09:57:11;3.90;95.00
1453;DHT22;720;47.738;7.998;2023-12-04T09:59:38;4.20;95.00
1453;DHT22;720;47.738;7.998;2023-12-04T10:02:04;4.30;94.30
1453;DHT22;720;47.738;7.998;2023-12-04T10:04:32;4.20;93.90
1453;DHT22;720;47.738;7.998;2023-12-04T10:06:58;4.30;94.00
1453;DHT22;720;47.738;7.998;2023-12-04T10:09:25;4.30;94.20
1453;DHT22;720;47.738;7.998;2023-12-04T10:11:51;4.50;94.30
1453;DHT22;720;47.738;7.998;2023-12-04T10:14:21;4.60;94.10
1453;DHT22;720;47.738;7.998;2023-12-04T10:16:47;4.80;94.10
1453;DHT22;720;47.738;7.998;2023-12-04T10:19:22;4.90;94.30
1453;DHT22;720;47.738;7.998;2023-12-04T10:21:50;4.90;94.40
1453;DHT22;720;47.738;7.998;2023-12-04T10:24:34;4.90;94.50
1453;DHT22;720;47.738;7.998;2023-12-04T10:27:05;4.80;93.60
1453;DHT22;720;47.738;7.998;2023-12-04T10:29:44;4.50;93.60
1453;DHT22;720;47.738;7.998;2023-12-04T10:32:11;4.50;94.20
1453;DHT22;720;47.738;7.998;2023-12-04T10:34:41;4.50;94.50
1453;DHT22;720;47.738;7.998;2023-12-04T10:37:08;4.50;94.20
1453;DHT22;720;47.738;7.998;2023-12-04T10:39:51;4.60;94.50
1453;DHT22;720;47.738;7.998;2023-12-04T10:42:28;4.50;94.70
1453;DHT22;720;47.738;7.998;2023-12-04T10:44:58;4.50;94.70
1453;DHT22;720;47.738;7.998;2023-12-04T10:47:24;4.40;94.90
1453;DHT22;720;47.738;7.998;2023-12-04T10:49:50;4.30;94.70
1453;DHT22;720;47.738;7.998;2023-12-04T10:52:17;4.10;94.70
1453;DHT22;720;47.738;7.998;2023-12-04T10:54:45;3.80;94.80
1453;DHT22;720;47.738;7.998;2023-12-04T10:57:13;3.50;95.20
1453;DHT22;720;47.738;7.998;2023-12-04T10:59:41;3.40;95.50
1453;DHT22;720;47.738;7.998;2023-12-04T11:02:09;3.40;95.90
1453;DHT22;720;47.738;7.998;2023-12-04T11:04:38;3.60;96.30
1453;DHT22;720;47.738;7.998;2023-12-04T11:07:06;3.90;96.30
1453;DHT22;720;47.738;7.998;2023-12-04T11:09:35;4.10;96.20
1453;DHT22;720;47.738;7.998;2023-12-04T11:12:05;4.30;96.00
1453;DHT22;720;47.738;7.998;2023-12-04T11:14:37;4.50;95.60
1453;DHT22;720;47.738;7.998;2023-12-04T11:17:08;4.60;95.20
1453;DHT22;720;47.738;7.998;2023-12-04T11:22:14;4.70;95.00
1453;DHT22;720;47.738;7.998;2023-12-04T11:24:41;4.70;95.00
1453;DHT22;720;47.738;7.998;2023-12-04T11:27:07;4.70;94.90
1453;DHT22;720;47.738;7.998;2023-12-04T11:29:33;4.70;94.90
1453;DHT22;720;47.738;7.998;2023-12-04T11:32:00;4.70;94.90
1453;DHT22;720;47.738;7.998;2023-12-04T11:34:26;4.70;94.90
1453;DHT22;720;47.738;7.998;2023-12-04T11:36:52;4.60;94.90
1453;DHT22;720;47.738;7.998;2023-12-04T11:39:18;4.50;95.10
1453;DHT22;720;47.738;7.998;2023-12-04T11:41:45;4.40;95.30
1453;DHT22;720;47.738;7.998;2023-12-04T11:44:14;4.40;95.40
1453;DHT22;720;47.738;7.998;2023-12-04T11:46:58;4.30;95.50
1453;DHT22;720;47.738;7.998;2023-12-04T11:49:29;4.20;95.80
1453;DHT22;720;47.738;7.998;2023-12-04T11:52:04;4.10;96.10
1453;DHT22;720;47.738;7.998;2023-12-04T11:54:56;3.90;96.60
1453;DHT22;720;47.738;7.998;2023-12-04T11:57:26;3.70;97.20
1453;DHT22;720;47.738;7.998;2023-12-04T12:02:33;3.70;97.50
1453;DHT22;720;47.738;7.998;2023-12-04T12:05:00;3.70;97.30
1453;DHT22;720;47.738;7.998;2023-12-04T12:07:26;3.70;97.10
1453;DHT22;720;47.738;7.998;2023-12-04T12:09:52;3.90;97.00
1453;DHT22;720;47.738;7.998;2023-12-04T12:12:18;4.00;97.10
1453;DHT22;720;47.738;7.998;2023-12-04T12:14:44;4.20;96.70
1453;DHT22;720;47.738;7.998;2023-12-04T12:17:10;4.30;96.40
1453;DHT22;720;47.738;7.998;2023-12-04T12:19:36;4.40;96.30
1453;DHT22;720;47.738;7.998;2023-12-04T12:22:03;4.40;96.20
1453;DHT22;720;47.738;7.998;2023-12-04T12:24:29;4.40;95.90
1453;DHT22;720;47.738;7.998;2023-12-04T12:26:56;4.40;95.90
1453;DHT22;720;47.738;7.998;2023-12-04T12:29:21;4.30;96.00
1453;DHT22;720;47.738;7.998;2023-12-04T12:31:47;4.20;96.20
1453;DHT22;720;47.738;7.998;2023-12-04T12:34:14;4.20;96.30
1453;DHT22;720;47.738;7.998;2023-12-04T12:36:40;4.10;96.30
1453;DHT22;720;47.738;7.998;2023-12-04T12:39:07;4.10;96.50
1453;DHT22;720;47.738;7.998;2023-12-04T12:41:34;4.20;96.80
1453;DHT22;720;47.738;7.998;2023-12-04T12:44:00;4.20;96.90
1453;DHT22;720;47.738;7.998;2023-12-04T12:46:26;4.30;97.00
1453;DHT22;720;47.738;7.998;2023-12-04T12:48:52;4.30;96.90
1453;DHT22;720;47.738;7.998;2023-12-04T12:51:18;4.30;96.80
1453;DHT22;720;47.738;7.998;2023-12-04T12:53:45;4.30;96.90
1453;DHT22;720;47.738;7.998;2023-12-04T12:56:11;4.40;96.90
1453;DHT22;720;47.738;7.998;2023-12-04T12:58:36;4.40;96.90
1453;DHT22;720;47.738;7.998;2023-12-04T13:01:02;4.30;96.80
1453;DHT22;720;47.738;7.998;2023-12-04T13:03:30;4.20;97.00
1453;DHT22;720;47.738;7.998;2023-12-04T13:05:58;4.20;96.90
1453;DHT22;720;47.738;7.998;2023-12-04T13:08:24;4.00;97.00
1453;DHT22;720;47.738;7.998;2023-12-04T13:10:49;4.00;97.40
1453;DHT22;720;47.738;7.998;2023-12-04T13:13:16;3.90;97.50
1453;DHT22;720;47.738;7.998;2023-12-04T13:15:42;3.80;97.70
1453;DHT22;720;47.738;7.998;2023-12-04T13:18:09;3.70;97.60
1453;DHT22;720;47.738;7.998;2023-12-04T13:20:35;3.60;97.80
1453;DHT22;720;47.738;7.998;2023-12-04T13:23:04;3.50;97.90
1453;DHT22;720;47.738;7.998;2023-12-04T13:25:29;3.50;98.20
1453;DHT22;720;47.738;7.998;2023-12-04T13:27:55;3.50;98.40
1453;DHT22;720;47.738;7.998;2023-12-04T13:30:21;3.50;98.30
1453;DHT22;720;47.738;7.998;2023-12-04T13:32:47;3.60;98.20
1453;DHT22;720;47.738;7.998;2023-12-04T13:35:15;3.50;97.80
1453;DHT22;720;47.738;7.998;2023-12-04T13:37:41;3.40;98.00
1453;DHT22;720;47.738;7.998;2023-12-04T13:40:08;3.30;98.00
1453;DHT22;720;47.738;7.998;2023-12-04T13:42:38;3.30;98.20
1453;DHT22;720;47.738;7.998;2023-12-04T13:45:23;3.30;98.20
1453;DHT22;720;47.738;7.998;2023-12-04T13:47:49;3.10;98.40
1453;DHT22;720;47.738;7.998;2023-12-04T13:50:17;3.10;98.80
1453;DHT22;720;47.738;7.998;2023-12-04T13:52:43;3.30;98.90
1453;DHT22;720;47.738;7.998;2023-12-04T13:55:09;3.50;98.60
1453;DHT22;720;47.738;7.998;2023-12-04T13:57:46;3.50;98.50
1453;DHT22;720;47.738;7.998;2023-12-04T14:00:24;3.50;98.40
1453;DHT22;720;47.738;7.998;2023-12-04T14:02:50;3.40;98.30
1453;DHT22;720;47.738;7.998;2023-12-04T14:05:22;3.40;98.30
1453;DHT22;720;47.738;7.998;2023-12-04T14:07:48;3.50;98.30
1453;DHT22;720;47.738;7.998;2023-12-04T14:10:15;3.50;98.40
1453;DHT22;720;47.738;7.998;2023-12-04T14:12:41;3.30;98.20
1453;DHT22;720;47.738;7.998;2023-12-04T14:15:08;3.30;98.20
1453;DHT22;720;47.738;7.998;2023-12-04T14:17:34;3.40;98.10
1453;DHT22;720;47.738;7.998;2023-12-04T14:20:00;3.40;97.80
1453;DHT22;720;47.738;7.998;2023-12-04T14:22:31;3.50;97.60
1453;DHT22;720;47.738;7.998;2023-12-04T14:24:57;3.40;97.50
1453;DHT22;720;47.738;7.998;2023-12-04T14:27:22;3.60;97.40
1453;DHT22;720;47.738;7.998;2023-12-04T14:29:48;3.60;97.00
1453;DHT22;720;47.738;7.998;2023-12-04T14:32:13;3.50;96.80
1453;DHT22;720;47.738;7.998;2023-12-04T14:34:39;3.40;96.80
1453;DHT22;720;47.738;7.998;2023-12-04T14:37:04;3.40;97.00
1453;DHT22;720;47.738;7.998;2023-12-04T14:39:30;3.30;97.10
1453;DHT22;720;47.738;7.998;2023-12-04T14:41:56;3.30;97.10
1453;DHT22;720;47.738;7.998;2023-12-04T14:44:21;3.30;97.20
1453;DHT22;720;47.738;7.998;2023-12-04T14:46:48;3.30;97.30
1453;DHT22;720;47.738;7.998;2023-12-04T14:49:14;3.30;97.40
1453;DHT22;720;47.738;7.998;2023-12-04T14:51:40;3.20;97.50
1453;DHT22;720;47.738;7.998;2023-12-04T14:54:06;3.10;97.30
1453;DHT22;720;47.738;7.998;2023-12-04T14:56:47;2.90;97.50
1453;DHT22;720;47.738;7.998;2023-12-04T14:59:31;2.90;97.90
1453;DHT22;720;47.738;7.998;2023-12-04T15:02:05;2.90;98.00
1453;DHT22;720;47.738;7.998;2023-12-04T15:04:49;2.80;98.10
1453;DHT22;720;47.738;7.998;2023-12-04T15:07:30;2.70;98.20
1453;DHT22;720;47.738;7.998;2023-12-04T15:10:19;2.80;98.30
1453;DHT22;720;47.738;7.998;2023-12-04T15:13:08;2.80;98.20
1453;DHT22;720;47.738;7.998;2023-12-04T15:15:39;2.90;98.20
1453;DHT22;720;47.738;7.998;2023-12-04T15:18:05;3.00;98.20
1453;DHT22;720;47.738;7.998;2023-12-04T15:20:49;3.00;98.00
1453;DHT22;720;47.738;7.998;2023-12-04T15:23:15;3.10;97.70
1453;DHT22;720;47.738;7.998;2023-12-04T15:25:44;3.10;97.50
1453;DHT22;720;47.738;7.998;2023-12-04T15:28:09;3.10;97.70
1453;DHT22;720;47.738;7.998;2023-12-04T15:30:39;3.10;97.70
1453;DHT22;720;47.738;7.998;2023-12-04T15:33:05;3.00;97.80
1453;DHT22;720;47.738;7.998;2023-12-04T15:35:32;2.90;98.10
1453;DHT22;720;47.738;7.998;2023-12-04T15:37:57;2.90;98.30
1453;DHT22;720;47.738;7.998;2023-12-04T15:40:23;3.00;98.00
1453;DHT22;720;47.738;7.998;2023-12-04T15:42:48;2.90;97.60
1453;DHT22;720;47.738;7.998;2023-12-04T15:45:14;2.90;97.70
1453;DHT22;720;47.738;7.998;2023-12-04T15:47:41;2.90;97.30
1453;DHT22;720;47.738;7.998;2023-12-04T15:50:07;2.80;97.00
1453;DHT22;720;47.738;7.998;2023-12-04T15:52:33;2.80;97.20
1453;DHT22;720;47.738;7.998;2023-12-04T15:55:15;2.80;97.50
1453;DHT22;720;47.738;7.998;2023-12-04T15:57:41;2.90;97.60
1453;DHT22;720;47.738;7.998;2023-12-04T16:00:07;2.80;97.70
1453;DHT22;720;47.738;7.998;2023-12-04T16:02:39;2.90;97.80
1453;DHT22;720;47.738;7.998;2023-12-04T16:05:06;2.90;97.80
1453;DHT22;720;47.738;7.998;2023-12-04T16:07:33;2.90;97.90
1453;DHT22;720;47.738;7.998;2023-12-04T16:09:58;2.90;97.80
1453;DHT22;720;47.738;7.998;2023-12-04T16:12:26;2.80;97.90
1453;DHT22;720;47.738;7.998;2023-12-04T16:14:51;2.80;98.10
1453;DHT22;720;47.738;7.998;2023-12-04T16:17:17;2.90;98.20
1453;DHT22;720;47.738;7.998;2023-12-04T16:19:43;3.00;98.20
1453;DHT22;720;47.738;7.998;2023-12-04T16:22:08;2.90;98.10
1453;DHT22;720;47.738;7.998;2023-12-04T16:24:34;3.00;98.00
1453;DHT22;720;47.738;7.998;2023-12-04T16:27:00;2.90;98.00
1453;DHT22;720;47.738;7.998;2023-12-04T16:29:26;2.90;98.10
1453;DHT22;720;47.738;7.998;2023-12-04T16:31:58;3.00;98.00